Time;durP1;ratioP1;P1;durP2;ratioP2;P2;SDS_P1;SDS_P2;PMS_P1;PMS_P2;Temp;Humidity;BMP_temperature;BMP_pressure;BME280_temperature;BME280_humidity;BME280_pressure;Samples;Min_cycle;Max_cycle;Signal;HPM_P1;HPM_P2
2022/05/27 00:03:17;;;;;;;2.67;0.87;;;11.60;99.90;;;;;;20822412;28;20115;-77
2022/05/27 00:13:18;;;;;;;1.17;0.83;;;11.40;99.90;;;;;;20809007;28;20137;-79
2022/05/27 00:23:20;;;;;;;3.00;1.40;;;11.30;99.90;;;;;;20789088;28;20125;-75
2022/05/27 00:33:21;;;;;;;5.43;1.25;;;11.10;99.90;;;;;;20795600;28;20400;-77
2022/05/27 00:43:22;;;;;;;1.77;1.00;;;11.40;99.90;;;;;;20773451;28;20410;-77
2022/05/27 00:53:41;;;;;;;4.27;1.37;;;11.40;99.90;;;;;;20780354;28;20069;-75
2022/05/27 01:03:43;;;;;;;5.82;1.60;;;11.40;99.90;;;;;;20782647;28;20028;-76
2022/05/27 01:13:56;;;;;;;12.32;1.35;;;11.10;99.90;;;;;;20751795;28;20046;-75
2022/05/27 01:24:17;;;;;;;3.90;1.40;;;10.90;99.90;;;;;;20757792;28;20041;-76
2022/05/27 01:34:35;;;;;;;5.68;1.60;;;10.80;99.90;;;;;;20757143;28;20034;-75
2022/05/27 01:44:48;;;;;;;4.55;1.35;;;11.10;99.90;;;;;;20756509;28;20030;-77
2022/05/27 01:55:07;;;;;;;6.20;1.50;;;10.90;99.90;;;;;;20753879;28;20439;-76
2022/05/27 02:05:20;;;;;;;2.72;1.83;;;10.60;99.90;;;;;;20754318;28;20042;-76
2022/05/27 02:15:31;;;;;;;4.82;2.00;;;10.40;99.90;;;;;;20754130;28;20045;-76
2022/05/27 02:25:37;;;;;;;3.43;1.60;;;10.30;99.90;;;;;;20751568;28;20137;-76
2022/05/27 02:35:41;;;;;;;3.70;1.75;;;10.40;99.90;;;;;;20756191;28;20026;-78
2022/05/27 02:46:10;;;;;;;4.63;1.35;;;10.40;99.90;;;;;;20757073;28;20091;-77
2022/05/27 02:56:26;;;;;;;2.42;1.52;;;10.20;99.90;;;;;;20755376;28;20240;-78
2022/05/27 03:06:27;;;;;;;3.03;1.75;;;10.10;99.90;;;;;;20755175;28;20477;-78
2022/05/27 03:16:53;;;;;;;2.90;1.73;;;10.10;99.90;;;;;;20755167;28;20057;-75
2022/05/27 03:27:27;;;;;;;2.70;1.90;;;10.20;99.90;;;;;;20754270;28;20100;-76
2022/05/27 03:37:35;;;;;;;2.25;1.75;;;10.00;99.90;;;;;;20745859;28;20037;-77
2022/05/27 03:47:38;;;;;;;3.40;2.40;;;9.80;99.90;;;;;;20750584;28;20070;-77
2022/05/27 03:57:39;;;;;;;5.57;2.50;;;9.90;99.90;;;;;;20747787;28;20544;-77
2022/05/27 04:07:40;;;;;;;5.13;2.20;;;9.90;99.90;;;;;;20747510;28;20073;-77
2022/05/27 04:17:42;;;;;;;2.53;1.67;;;9.90;99.90;;;;;;20746430;28;20116;-76
2022/05/27 04:27:43;;;;;;;5.25;2.00;;;10.10;99.90;;;;;;20744018;28;20451;-75
2022/05/27 04:37:44;;;;;;;3.20;2.70;;;10.00;99.90;;;;;;20744959;28;20046;-76
2022/05/27 04:47:44;;;;;;;3.37;2.30;;;10.00;99.90;;;;;;20753674;28;20030;-76
2022/05/27 04:57:50;;;;;;;12.60;2.13;;;10.50;99.90;;;;;;20759549;28;20026;-76
2022/05/27 05:08:33;;;;;;;4.50;2.10;;;11.00;99.90;;;;;;20758347;28;20044;-76
2022/05/27 05:18:34;;;;;;;;;;;11.30;99.90;;;;;;20758350;28;20026;-77
2022/05/27 05:28:35;;;;;;;4.97;2.27;;;11.50;99.90;;;;;;20757004;28;19949;-76
2022/05/27 05:38:37;;;;;;;4.13;2.63;;;12.20;99.90;;;;;;20755919;28;20301;-77
2022/05/27 05:48:37;;;;;;;;;;;12.70;99.90;;;;;;20764669;28;20289;-77
2022/05/27 05:58:38;;;;;;;3.70;2.08;;;13.10;99.90;;;;;;20754298;28;20294;-77
2022/05/27 06:08:39;;;;;;;8.67;2.43;;;13.70;99.90;;;;;;20754474;28;20061;-76
2022/05/27 06:18:42;;;;;;;3.13;2.10;;;14.10;99.90;;;;;;20799698;28;20021;-75
2022/05/27 06:39:07;;;;;;;6.03;2.00;;;14.70;99.90;;;;;;20832919;28;20033;-78
2022/05/27 06:49:09;;;;;;;5.95;1.80;;;14.90;99.90;;;;;;20839389;28;20033;-77
2022/05/27 06:59:10;;;;;;;6.17;1.53;;;15.20;99.90;;;;;;20838211;28;20021;-77
2022/05/27 07:09:13;;;;;;;3.42;1.60;;;15.40;99.90;;;;;;20844214;28;20029;-78
2022/05/27 07:19:15;;;;;;;3.22;1.63;;;15.90;99.90;;;;;;20832149;28;20128;-76
2022/05/27 07:29:15;;;;;;;3.88;1.27;;;15.80;99.90;;;;;;20832724;28;20040;-76
2022/05/27 07:39:16;;;;;;;3.17;1.80;;;15.90;99.90;;;;;;20840207;28;20392;-79
2022/05/27 07:49:17;;;;;;;1.47;0.90;;;16.60;99.90;;;;;;20838125;28;20060;-77
2022/05/27 07:59:18;;;;;;;2.43;1.00;;;16.90;99.90;;;;;;20841229;28;20124;-77
2022/05/27 08:09:19;;;;;;;3.33;0.98;;;16.80;99.90;;;;;;20830040;28;20492;-79
2022/05/27 08:19:20;;;;;;;4.60;1.17;;;18.10;99.90;;;;;;20827909;28;20045;-78
2022/05/27 08:29:21;;;;;;;2.80;1.40;;;18.20;99.90;;;;;;20627841;23;20047;-76
2022/05/27 08:39:22;;;;;;;3.63;1.13;;;18.50;99.90;;;;;;20581767;28;20126;-76
2022/05/27 08:49:30;;;;;;;4.57;1.20;;;19.30;99.90;;;;;;20581644;28;20401;-76
2022/05/27 08:59:42;;;;;;;5.05;1.20;;;19.40;99.90;;;;;;20581041;28;20222;-77
2022/05/27 09:09:44;;;;;;;5.80;0.90;;;19.40;99.90;;;;;;20580993;28;20516;-76
2022/05/27 09:20:12;;;;;;;5.63;0.80;;;19.30;99.90;;;;;;20580520;28;20030;-76
2022/05/27 09:30:17;;;;;;;2.38;0.88;;;19.20;99.90;;;;;;20580608;28;20046;-76
2022/05/27 09:40:46;;;;;;;3.92;0.95;;;19.30;99.90;;;;;;20594301;28;20524;-76
2022/05/27 09:50:49;;;;;;;2.58;0.60;;;20.00;99.90;;;;;;20593650;28;20058;-76
2022/05/27 10:00:50;;;;;;;4.55;0.80;;;21.20;99.90;;;;;;20591259;28;20034;-76
2022/05/27 10:11:25;;;;;;;2.80;0.90;;;20.50;99.90;;;;;;20633186;28;20037;-76
2022/05/27 10:21:26;;;;;;;2.13;0.75;;;20.20;99.90;;;;;;20662490;28;20408;-76
2022/05/27 10:31:28;;;;;;;1.17;0.60;;;21.30;99.90;;;;;;20671358;28;20037;-77
2022/05/27 10:41:47;;;;;;;4.45;1.20;;;20.70;99.90;;;;;;20619998;28;20057;-77
2022/05/27 10:52:06;;;;;;;1.60;0.80;;;20.90;99.90;;;;;;20639879;28;20520;-76
2022/05/27 11:02:18;;;;;;;2.70;0.63;;;21.90;99.90;;;;;;20600329;28;20113;-76
2022/05/27 11:23:43;;;;;;;2.83;0.70;;;20.40;99.90;;;;;;20548777;28;20051;-75
2022/05/27 11:34:05;;;;;;;3.42;0.70;;;20.20;99.90;;;;;;20565272;28;20054;-76
2022/05/27 11:44:21;;;;;;;1.58;0.70;;;21.50;99.90;;;;;;20566648;28;20050;-76
2022/05/27 11:54:33;;;;;;;4.70;0.75;;;21.10;99.90;;;;;;20566216;28;20039;-75
2022/05/27 12:04:48;;;;;;;3.05;0.60;;;21.50;99.90;;;;;;20576068;28;20034;-76
2022/05/27 12:15:00;;;;;;;2.33;0.90;;;22.20;99.90;;;;;;20565232;28;20077;-76
2022/05/27 12:25:11;;;;;;;1.33;0.60;;;21.30;99.90;;;;;;20546647;28;20049;-75
2022/05/27 12:35:23;;;;;;;3.83;0.70;;;21.30;99.90;;;;;;20590211;28;20073;-76
2022/05/27 12:45:52;;;;;;;1.00;0.57;;;21.60;99.90;;;;;;20576687;28;20039;-76
2022/05/27 13:06:17;;;;;;;1.80;0.65;;;22.80;99.90;;;;;;20574840;28;20544;-76
2022/05/27 13:16:31;;;;;;;2.58;1.00;;;22.90;99.90;;;;;;20638016;28;20030;-76
2022/05/27 13:26:47;;;;;;;3.95;1.00;;;22.70;99.90;;;;;;20636565;28;20038;-76
2022/05/27 13:37:03;;;;;;;1.42;0.60;;;21.50;99.90;;;;;;20629999;28;20385;-75
2022/05/27 13:47:07;;;;;;;1.80;1.00;;;21.70;99.90;;;;;;20633640;28;20520;-75
2022/05/27 13:57:14;;;;;;;2.38;0.73;;;22.00;99.90;;;;;;20638992;28;20034;-76
2022/05/27 14:07:20;;;;;;;1.90;0.80;;;22.70;99.90;;;;;;20644493;28;20641;-75
2022/05/27 14:17:23;;;;;;;5.70;0.80;;;22.70;99.90;;;;;;20672003;28;20038;-75
2022/05/27 14:27:26;;;;;;;4.43;0.88;;;22.60;99.90;;;;;;20745053;22;20054;-81
2022/05/27 14:37:54;;;;;;;1.70;0.70;;;23.10;99.90;;;;;;20744377;28;20393;-82
2022/05/27 14:47:54;;;;;;;1.98;0.80;;;22.60;99.90;;;;;;20749964;28;20478;-85
2022/05/27 14:57:59;;;;;;;0.97;0.80;;;23.30;99.90;;;;;;20754335;28;20402;-84
2022/05/27 15:08:05;;;;;;;8.30;0.85;;;22.70;99.90;;;;;;20752558;28;20046;-83
2022/05/27 15:18:17;;;;;;;1.25;0.80;;;22.70;99.90;;;;;;20736861;28;20040;-83
2022/05/27 15:38:37;;;;;;;1.63;0.98;;;22.50;99.90;;;;;;20756559;28;20483;-84
2022/05/27 15:48:39;;;;;;;6.82;2.33;;;22.20;99.90;;;;;;20755028;28;20030;-83
2022/05/27 15:58:41;;;;;;;3.42;0.95;;;22.00;99.90;;;;;;20830630;28;20053;-82
2022/05/27 16:08:42;;;;;;;1.58;0.80;;;22.10;99.90;;;;;;20731116;28;20054;-82
2022/05/27 16:18:43;;;;;;;3.77;1.20;;;21.60;99.90;;;;;;20795352;28;20033;-83
2022/05/27 16:28:45;;;;;;;2.37;0.83;;;21.50;99.90;;;;;;20711951;28;20129;-81
2022/05/27 16:38:45;;;;;;;2.88;0.80;;;21.20;99.90;;;;;;20734304;28;20033;-80
2022/05/27 16:48:46;;;;;;;6.07;0.87;;;20.90;99.90;;;;;;20736276;28;20042;-82
2022/05/27 16:58:47;;;;;;;3.42;1.00;;;20.10;99.90;;;;;;20789609;28;20128;-82
2022/05/27 17:08:48;;;;;;;0.90;0.80;;;20.00;99.90;;;;;;20815121;28;20034;-82
2022/05/27 17:18:49;;;;;;;2.25;1.00;;;20.20;99.90;;;;;;20777302;28;20034;-82
2022/05/27 17:28:50;;;;;;;5.00;0.90;;;19.70;99.90;;;;;;20777614;28;20045;-83
2022/05/27 17:38:51;;;;;;;1.73;1.17;;;18.80;99.90;;;;;;20749690;28;20037;-82
2022/05/27 17:59:11;;;;;;;3.35;1.00;;;19.00;99.90;;;;;;20752115;28;20062;-82
2022/05/27 18:09:13;;;;;;;1.60;0.80;;;20.50;99.90;;;;;;20711981;28;20487;-82
2022/05/27 18:19:13;;;;;;;;;;;19.80;99.90;;;;;;20730880;28;20025;-82
2022/05/27 18:29:14;;;;;;;2.00;0.80;;;18.90;99.90;;;;;;20786166;28;19913;-82
2022/05/27 18:39:15;;;;;;;1.93;0.80;;;18.50;99.90;;;;;;20841610;28;20048;-83
2022/05/27 18:49:16;;;;;;;0.80;0.70;;;18.30;99.90;;;;;;20836071;28;20033;-83
2022/05/27 18:59:17;;;;;;;2.87;0.67;;;18.50;99.90;;;;;;20817455;28;20041;-84
2022/05/27 19:09:18;;;;;;;0.77;0.60;;;18.20;99.90;;;;;;20828520;28;20048;-83
2022/05/27 19:29:38;;;;;;;1.23;0.73;;;18.00;99.90;;;;;;20837045;28;20064;-82
2022/05/27 19:39:39;;;;;;;3.27;0.80;;;17.90;99.90;;;;;;20818702;28;20548;-80
2022/05/27 19:49:40;;;;;;;2.63;0.80;;;17.70;99.90;;;;;;20833160;28;20033;-82
2022/05/27 19:59:42;;;;;;;2.93;0.50;;;17.70;99.90;;;;;;20815207;28;20497;-82
2022/05/27 20:09:44;;;;;;;1.15;0.60;;;17.70;99.90;;;;;;20830697;28;20407;-81
2022/05/27 20:19:45;;;;;;;1.83;0.60;;;17.80;99.90;;;;;;20811972;28;20143;-83
2022/05/27 20:29:46;;;;;;;3.63;0.60;;;17.70;99.90;;;;;;20802629;23;20069;-77
2022/05/27 20:39:48;;;;;;;;;;;17.60;99.90;;;;;;20808547;28;20095;-76
2022/05/27 20:49:50;;;;;;;1.50;0.70;;;17.50;99.90;;;;;;20824966;28;19909;-78
2022/05/27 20:59:51;;;;;;;5.57;0.57;;;17.30;99.90;;;;;;20807192;28;20422;-77
2022/05/27 21:09:52;;;;;;;1.73;0.80;;;17.10;99.90;;;;;;20810641;28;20056;-76
2022/05/27 21:19:54;;;;;;;3.13;0.63;;;17.10;99.90;;;;;;20812323;28;20034;-76
2022/05/27 21:29:54;;;;;;;0.47;0.40;;;17.00;99.90;;;;;;20790587;28;20069;-76
2022/05/27 21:39:56;;;;;;;2.50;0.73;;;17.00;99.90;;;;;;20738240;28;20038;-77
2022/05/27 21:49:57;;;;;;;;;;;16.90;99.90;;;;;;20751823;28;20041;-75
2022/05/27 21:59:57;;;;;;;1.20;0.70;;;16.80;99.90;;;;;;20735993;28;19914;-75
2022/05/27 22:20:19;;;;;;;2.47;1.00;;;16.40;99.90;;;;;;20756934;28;20120;-76
2022/05/27 22:30:20;;;;;;;1.90;0.88;;;16.40;99.90;;;;;;20750731;28;20022;-75
2022/05/27 22:40:22;;;;;;;3.20;0.75;;;16.20;99.90;;;;;;20754512;28;20546;-78
2022/05/27 22:50:23;;;;;;;3.78;1.13;;;15.70;99.90;;;;;;20755648;28;20049;-77
2022/05/27 23:00:24;;;;;;;3.00;1.23;;;15.20;99.90;;;;;;20760391;28;20038;-79
2022/05/27 23:10:24;;;;;;;1.47;1.00;;;14.60;99.90;;;;;;20764206;28;20388;-78
2022/05/27 23:20:25;;;;;;;1.87;1.10;;;14.20;99.90;;;;;;20760637;28;20034;-77
2022/05/27 23:30:26;;;;;;;6.33;1.60;;;14.10;99.90;;;;;;20745489;28;20042;-78
2022/05/27 23:40:27;;;;;;;1.80;1.07;;;13.40;99.90;;;;;;20766805;28;20026;-79
2022/05/27 23:50:28;;;;;;;2.20;0.90;;;13.30;99.90;;;;;;20757513;28;20030;-78
